Time;durP1;ratioP1;P1;durP2;ratioP2;P2;SDS_P1;SDS_P2;PMS_P1;PMS_P2;Temp;Humidity;BMP_temperature;BMP_pressure;BME280_temperature;BME280_humidity;BME280_pressure;Samples;Min_cycle;Max_cycle;Signal;HPM_P1;HPM_P2
2023/06/24 00:01:52;;;;;;;;;;;;;;;15.49;67.32;99876.84;1747549;81;20135;-58
2023/06/24 00:04:20;;;;;;;;;;;;;;;15.47;67.24;99880.08;1748214;81;20300;-59
2023/06/24 00:06:46;;;;;;;;;;;;;;;15.47;67.45;99872.18;1748059;81;20918;-58
2023/06/24 00:09:12;;;;;;;;;;;;;;;15.49;67.39;99880.35;1747458;81;20626;-58
2023/06/24 00:11:38;;;;;;;;;;;;;;;15.49;67.58;99878.16;1714638;83;20220;-59
2023/06/24 00:14:06;;;;;;;;;;;;;;;15.50;67.71;99871.98;1721707;82;20101;-58
2023/06/24 00:16:33;;;;;;;;;;;;;;;15.50;67.68;99873.30;1707702;82;20468;-58
2023/06/24 00:19:00;;;;;;;;;;;;;;;15.49;67.74;99872.90;1710426;82;20185;-59
2023/06/24 00:21:29;;;;;;;;;;;;;;;15.45;67.81;99873.11;1708361;84;20176;-59
2023/06/24 00:24:04;;;;;;;;;;;;;;;15.47;68.02;99877.45;1697723;83;20185;-59
2023/06/24 00:26:27;;;;;;;;;;;;;;;15.49;68.03;99883.42;1682110;84;20449;-59
2023/06/24 00:28:53;;;;;;;;;;;;;;;15.48;68.12;99883.06;1690878;83;20274;-59
2023/06/24 00:31:19;;;;;;;;;;;;;;;15.47;68.34;99887.97;1713101;83;20906;-58
2023/06/24 00:33:45;;;;;;;;;;;;;;;15.45;68.47;99883.62;1709088;83;20090;-58
2023/06/24 00:36:11;;;;;;;;;;;;;;;15.44;68.34;99892.48;1749268;81;20194;-58
2023/06/24 00:38:40;;;;;;;;;;;;;;;15.44;68.56;99883.27;1751168;81;20270;-59
2023/06/24 00:41:06;;;;;;;;;;;;;;;15.42;68.51;99883.83;1748894;81;20091;-58
2023/06/24 00:43:32;;;;;;;;;;;;;;;15.42;68.76;99884.31;1749885;81;20155;-58
2023/06/24 00:45:58;;;;;;;;;;;;;;;15.41;68.74;99883.47;1749698;81;20154;-58
2023/06/24 00:48:24;;;;;;;;;;;;;;;15.41;68.83;99883.95;1752125;80;20153;-58
2023/06/24 00:50:51;;;;;;;;;;;;;;;15.38;68.80;99878.41;1754851;80;20162;-59
2023/06/24 00:53:17;;;;;;;;;;;;;;;15.38;68.95;99879.73;1714386;83;20101;-59
2023/06/24 00:55:45;;;;;;;;;;;;;;;15.37;69.01;99879.33;1708314;83;20147;-58
2023/06/24 00:58:16;;;;;;;;;;;;;;;15.36;69.17;99877.66;1710575;83;20104;-58
2023/06/24 01:00:45;;;;;;;;;;;;;;;15.38;69.12;99874.47;1686952;84;20170;-58
2023/06/24 01:03:17;;;;;;;;;;;;;;;15.38;69.23;99871.83;1691429;84;20113;-59
2023/06/24 01:05:41;;;;;;;;;;;;;;;15.39;69.15;99875.30;1720124;82;20147;-58
2023/06/24 01:08:07;;;;;;;;;;;;;;;15.37;69.38;99875.39;1721024;82;20168;-58
2023/06/24 01:10:33;;;;;;;;;;;;;;;15.37;69.36;99874.07;1680000;83;20126;-58
2023/06/24 01:12:59;;;;;;;;;;;;;;;15.35;69.37;99874.67;1733441;82;20114;-58
2023/06/24 01:15:28;;;;;;;;;;;;;;;15.33;69.56;99868.66;1740015;82;20405;-58
2023/06/24 01:17:59;;;;;;;;;;;;;;;15.32;69.56;99863.47;1722857;82;20125;-58
2023/06/24 01:20:27;;;;;;;;;;;;;;;15.32;69.75;99861.71;1742485;81;20406;-58
2023/06/24 01:23:02;;;;;;;;;;;;;;;15.33;69.81;99866.02;1724620;82;20162;-58
2023/06/24 01:25:36;;;;;;;;;;;;;;;15.33;69.88;99862.07;1714603;82;20148;-58
2023/06/24 01:28:21;;;;;;;;;;;;;;;15.34;69.93;99862.44;1693665;83;20174;-59
2023/06/24 01:31:04;;;;;;;;;;;;;;;15.35;69.96;99866.77;1689128;84;20136;-59
2023/06/24 01:33:36;;;;;;;;;;;;;;;15.35;70.05;99874.67;1683363;83;20488;-58
2023/06/24 01:36:04;;;;;;;;;;;;;;;15.36;70.23;99873.71;1713490;82;20153;-59
2023/06/24 01:38:32;;;;;;;;;;;;;;;15.32;70.28;99868.29;1718133;82;20176;-58
2023/06/24 01:40:58;;;;;;;;;;;;;;;15.31;70.15;99867.90;1684306;83;20162;-58
2023/06/24 01:43:25;;;;;;;;;;;;;;;15.27;70.31;99866.42;1722864;82;20559;-58
2023/06/24 01:45:53;;;;;;;;;;;;;;;15.25;70.42;99869.61;1709985;83;20109;-58
2023/06/24 01:48:20;;;;;;;;;;;;;;;15.25;70.46;99869.61;1741671;82;20114;-58
2023/06/24 01:51:01;;;;;;;;;;;;;;;15.23;70.55;99870.17;1710101;82;20109;-58
2023/06/24 01:53:28;;;;;;;;;;;;;;;15.22;70.63;99864.08;1686364;83;20154;-58
2023/06/24 01:55:55;;;;;;;;;;;;;;;15.21;70.66;99862.40;1685542;84;20222;-58
2023/06/24 01:58:23;;;;;;;;;;;;;;;15.20;70.84;99863.32;1716771;82;20194;-58
2023/06/24 02:00:50;;;;;;;;;;;;;;;15.18;70.64;99855.19;1710611;83;20482;-58
2023/06/24 02:03:17;;;;;;;;;;;;;;;15.15;71.02;99864.55;1689323;83;20410;-58
2023/06/24 02:05:44;;;;;;;;;;;;;;;15.12;70.94;99858.18;1705818;84;20156;-58
2023/06/24 02:08:11;;;;;;;;;;;;;;;15.11;71.16;99868.34;1710377;84;20107;-58
2023/06/24 02:10:38;;;;;;;;;;;;;;;15.09;71.14;99862.33;1687723;83;20178;-59
2023/06/24 02:13:05;;;;;;;;;;;;;;;15.09;71.16;99859.70;1685131;85;20116;-58
2023/06/24 02:15:33;;;;;;;;;;;;;;;15.06;71.25;99854.16;1726760;82;20180;-58
2023/06/24 02:18:02;;;;;;;;;;;;;;;15.06;71.37;99858.58;1734698;82;20221;-58
2023/06/24 02:20:29;;;;;;;;;;;;;;;15.04;71.34;99864.40;1726043;82;20225;-59
2023/06/24 02:22:56;;;;;;;;;;;;;;;15.03;71.53;99865.34;1733528;82;20222;-58
2023/06/24 02:25:24;;;;;;;;;;;;;;;15.02;71.56;99867.62;1708699;82;20500;-58
2023/06/24 02:27:51;;;;;;;;;;;;;;;14.99;71.63;99862.92;1689979;83;20132;-58
2023/06/24 02:30:19;;;;;;;;;;;;;;;14.98;71.58;99866.50;1682785;85;20107;-58
2023/06/24 02:32:45;;;;;;;;;;;;;;;14.96;71.61;99880.68;1727205;82;20168;-58
2023/06/24 02:35:11;;;;;;;;;;;;;;;14.95;71.74;99879.81;1713699;83;20124;-58
2023/06/24 02:37:37;;;;;;;;;;;;;;;14.92;71.72;99885.27;1710336;84;20175;-58
2023/06/24 02:40:05;;;;;;;;;;;;;;;14.92;71.81;99889.20;1720194;82;20150;-58
2023/06/24 02:42:31;;;;;;;;;;;;;;;14.92;71.95;99887.05;1708087;82;20432;-58
2023/06/24 02:44:57;;;;;;;;;;;;;;;14.90;71.91;99889.80;1709250;84;20111;-58
2023/06/24 02:47:24;;;;;;;;;;;;;;;14.90;72.02;99887.17;1684326;83;20120;-58
2023/06/24 02:49:51;;;;;;;;;;;;;;;14.90;71.98;99891.55;1689148;83;20159;-58
2023/06/24 02:52:17;;;;;;;;;;;;;;;14.86;72.02;99888.28;1684760;85;20118;-58
2023/06/24 02:54:44;;;;;;;;;;;;;;;14.83;72.09;99885.84;1708246;83;20175;-59
2023/06/24 02:57:10;;;;;;;;;;;;;;;14.83;72.20;99891.11;1688226;83;20131;-58
2023/06/24 02:59:37;;;;;;;;;;;;;;;14.84;72.35;99895.41;1709954;83;20150;-58
2023/06/24 03:02:04;;;;;;;;;;;;;;;14.84;72.47;99895.41;1683644;84;20194;-58
2023/06/24 03:04:30;;;;;;;;;;;;;;;14.85;72.51;99894.49;1707934;84;20101;-58
2023/06/24 03:06:59;;;;;;;;;;;;;;;14.89;72.52;99901.23;1707491;84;20085;-58
2023/06/24 03:09:25;;;;;;;;;;;;;;;14.90;72.63;99900.31;1687526;83;20324;-59
2023/06/24 03:11:52;;;;;;;;;;;;;;;14.89;72.59;99902.55;1684166;84;20439;-59
2023/06/24 03:14:18;;;;;;;;;;;;;;;14.92;72.69;99912.03;1684929;84;20485;-58
2023/06/24 03:16:44;;;;;;;;;;;;;;;14.92;72.95;99912.88;1689855;84;20157;-59
2023/06/24 03:19:10;;;;;;;;;;;;;;;14.92;72.77;99922.07;1707913;84;20198;-58
2023/06/24 03:21:36;;;;;;;;;;;;;;;14.92;72.73;99915.50;1688006;83;20096;-59
2023/06/24 03:24:02;;;;;;;;;;;;;;;14.91;72.82;99923.50;1709397;83;20471;-59
2023/06/24 03:26:33;;;;;;;;;;;;;;;14.88;72.79;99927.16;1708014;83;20351;-59
2023/06/24 03:28:59;;;;;;;;;;;;;;;14.81;72.77;99932.41;1688093;83;20224;-59
2023/06/24 03:31:25;;;;;;;;;;;;;;;14.78;72.83;99927.34;1684809;85;20178;-58
2023/06/24 03:33:51;;;;;;;;;;;;;;;14.76;73.01;99930.08;1708776;83;20246;-58
2023/06/24 03:36:17;;;;;;;;;;;;;;;14.75;72.97;99928.38;1688052;83;20456;-58
2023/06/24 03:38:42;;;;;;;;;;;;;;;14.73;73.17;99930.27;1684127;85;20142;-59
2023/06/24 03:41:08;;;;;;;;;;;;;;;14.78;73.29;99931.28;1707375;84;20152;-58
2023/06/24 03:43:34;;;;;;;;;;;;;;;14.78;73.30;99932.59;1687401;83;20124;-59
2023/06/24 03:46:00;;;;;;;;;;;;;;;14.75;73.32;99940.67;1685569;84;20100;-58
2023/06/24 03:48:26;;;;;;;;;;;;;;;14.75;73.41;99940.67;1706932;83;20106;-58
2023/06/24 03:50:53;;;;;;;;;;;;;;;14.77;73.46;99949.32;1712630;82;20265;-59
2023/06/24 03:53:20;;;;;;;;;;;;;;;14.76;73.48;99951.58;1748467;81;20191;-58
2023/06/24 03:55:46;;;;;;;;;;;;;;;14.79;73.50;99948.77;1749563;81;20102;-58
2023/06/24 03:58:13;;;;;;;;;;;;;;;14.80;73.48;99941.24;1748368;81;20397;-58
2023/06/24 04:00:40;;;;;;;;;;;;;;;14.84;73.57;99944.05;1746019;81;20111;-58
2023/06/24 04:03:07;;;;;;;;;;;;;;;14.87;73.56;99946.52;1747868;81;20536;-58
2023/06/24 04:05:34;;;;;;;;;;;;;;;14.91;73.62;99946.69;1748739;81;20153;-58
2023/06/24 04:07:59;;;;;;;;;;;;;;;14.93;73.67;99955.33;1746980;81;20170;-58
2023/06/24 04:10:25;;;;;;;;;;;;;;;14.95;73.66;99958.69;1709089;84;20085;-58
2023/06/24 04:12:52;;;;;;;;;;;;;;;15.02;73.80;99958.33;1733424;82;20186;-59
2023/06/24 04:15:19;;;;;;;;;;;;;;;15.08;73.83;99955.31;1733363;82;20185;-58
2023/06/24 04:17:45;;;;;;;;;;;;;;;15.12;73.72;99956.80;1723186;82;20098;-58
2023/06/24 04:20:11;;;;;;;;;;;;;;;15.14;73.68;99950.98;1736684;82;20166;-58
2023/06/24 04:22:38;;;;;;;;;;;;;;;15.20;73.83;99957.17;1718637;82;20583;-58
2023/06/24 04:25:05;;;;;;;;;;;;;;;15.23;73.77;99955.66;1738297;82;20091;-58
2023/06/24 04:27:33;;;;;;;;;;;;;;;15.30;74.00;99958.30;1716485;82;20213;-59
2023/06/24 04:30:00;;;;;;;;;;;;;;;15.39;73.96;99962.97;1711988;83;20117;-58
2023/06/24 04:32:26;;;;;;;;;;;;;;;15.44;73.94;99966.16;1751850;81;20139;-58
2023/06/24 04:34:53;;;;;;;;;;;;;;;15.51;73.86;99965.76;1749586;81;20476;-58
2023/06/24 04:37:20;;;;;;;;;;;;;;;15.52;73.90;99968.78;1752051;80;20193;-58
2023/06/24 04:39:48;;;;;;;;;;;;;;;15.54;74.04;99960.30;1748589;81;20489;-59
2023/06/24 04:42:14;;;;;;;;;;;;;;;15.57;73.98;99965.36;1715071;83;20136;-58
2023/06/24 04:44:40;;;;;;;;;;;;;;;15.55;73.96;99967.27;1686793;84;20950;-58
2023/06/24 04:47:07;;;;;;;;;;;;;;;15.60;74.20;99965.16;1708108;84;20129;-58
2023/06/24 04:49:32;;;;;;;;;;;;;;;15.67;74.33;99966.47;1708889;82;20127;-59
2023/06/24 04:52:01;;;;;;;;;;;;;;;15.77;74.51;99970.23;1729560;82;20091;-58
2023/06/24 04:54:31;;;;;;;;;;;;;;;15.87;74.34;99979.20;1717368;82;20097;-58
2023/06/24 04:56:57;;;;;;;;;;;;;;;15.95;74.35;99977.87;1729637;82;20200;-58
2023/06/24 04:59:23;;;;;;;;;;;;;;;16.04;74.48;99975.95;1730157;82;20431;-58
2023/06/24 05:01:49;;;;;;;;;;;;;;;16.17;74.48;99980.78;1737723;82;20099;-58
2023/06/24 05:04:17;;;;;;;;;;;;;;;16.29;74.43;99975.16;1713353;82;20221;-58
2023/06/24 05:06:43;;;;;;;;;;;;;;;16.36;74.25;99980.41;1738612;82;20287;-58
2023/06/24 05:09:13;;;;;;;;;;;;;;;16.49;74.50;99977.77;1741948;82;20429;-59
2023/06/24 05:11:37;;;;;;;;;;;;;;;16.61;74.42;99988.82;1711998;83;20454;-58
2023/06/24 05:14:05;;;;;;;;;;;;;;;16.80;74.63;99991.53;1718589;82;20148;-58
2023/06/24 05:16:33;;;;;;;;;;;;;;;16.96;74.27;99993.00;1694439;83;20107;-58
2023/06/24 05:18:59;;;;;;;;;;;;;;;17.07;74.31;99991.42;1707283;83;20403;-58
2023/06/24 05:21:25;;;;;;;;;;;;;;;17.21;74.24;99982.89;1688076;83;20146;-59
2023/06/24 05:23:51;;;;;;;;;;;;;;;17.33;74.21;99981.66;1719597;82;20143;-59
2023/06/24 05:26:17;;;;;;;;;;;;;;;17.48;74.16;99977.09;1740954;82;20182;-59
2023/06/24 05:28:43;;;;;;;;;;;;;;;17.62;74.36;99977.78;1721129;82;20137;-58
2023/06/24 05:31:09;;;;;;;;;;;;;;;17.85;74.29;99975.29;1713849;83;20129;-58
2023/06/24 05:33:35;;;;;;;;;;;;;;;18.05;74.15;99972.01;1715698;82;20152;-59
2023/06/24 05:36:01;;;;;;;;;;;;;;;18.25;73.99;99975.80;1730857;80;20173;-59
2023/06/24 05:38:28;;;;;;;;;;;;;;;18.38;73.72;99967.80;1695582;83;20454;-59
2023/06/24 05:40:54;;;;;;;;;;;;;;;18.54;73.72;99970.97;1688958;84;20183;-58
2023/06/24 05:43:19;;;;;;;;;;;;;;;18.70;73.61;99961.84;1708643;83;20179;-59
2023/06/24 05:45:45;;;;;;;;;;;;;;;18.83;73.53;99962.61;1695676;83;20090;-58
2023/06/24 05:48:11;;;;;;;;;;;;;;;18.87;73.24;99961.39;1702257;83;20170;-59
2023/06/24 05:50:37;;;;;;;;;;;;;;;18.90;73.03;99951.89;1690273;83;20201;-60
2023/06/24 05:53:03;;;;;;;;;;;;;;;18.97;73.32;99951.78;1679686;85;20151;-60
2023/06/24 05:55:30;;;;;;;;;;;;;;;19.16;73.37;99951.67;1678437;85;20472;-59
2023/06/24 05:57:56;;;;;;;;;;;;;;;19.32;73.17;99951.27;1679260;85;20160;-59
2023/06/24 06:00:23;;;;;;;;;;;;;;;19.43;72.68;99948.11;1658847;85;20193;-59
2023/06/24 06:02:49;;;;;;;;;;;;;;;19.43;72.65;99942.81;1679479;84;20487;-59
2023/06/24 06:05:16;;;;;;;;;;;;;;;19.52;72.81;99943.04;1679422;85;20110;-59
2023/06/24 06:07:45;;;;;;;;;;;;;;;19.77;73.16;99948.05;1658434;85;20178;-60
2023/06/24 06:10:11;;;;;;;;;;;;;;;20.09;72.64;99949.86;1678902;85;20387;-59
2023/06/24 06:12:37;;;;;;;;;;;;;;;20.35;72.68;99945.85;1677615;85;20184;-60
2023/06/24 06:15:04;;;;;;;;;;;;;;;20.66;72.08;99943.27;1677347;85;20403;-59
2023/06/24 06:17:32;;;;;;;;;;;;;;;20.94;71.77;99936.91;1678185;85;20416;-60
2023/06/24 06:20:03;;;;;;;;;;;;;;;21.35;71.37;99949.70;1679620;84;20188;-59
2023/06/24 06:22:29;;;;;;;;;;;;;;;21.67;71.50;99937.04;1664199;85;20137;-60
2023/06/24 06:25:00;;;;;;;;;;;;;;;22.13;71.24;99946.65;1695046;83;20193;-60
2023/06/24 06:27:23;;;;;;;;;;;;;;;22.52;69.81;99942.13;1694202;83;20439;-59
2023/06/24 06:29:49;;;;;;;;;;;;;;;22.87;70.37;99935.78;1685230;83;20188;-56
2023/06/24 06:32:15;;;;;;;;;;;;;;;23.39;69.83;99942.28;1689421;83;20410;-58
2023/06/24 06:34:47;;;;;;;;;;;;;;;23.64;68.77;99937.22;1685322;83;20108;-59
2023/06/24 06:37:14;;;;;;;;;;;;;;;23.68;68.27;99943.91;1669850;85;20507;-60
2023/06/24 06:39:48;;;;;;;;;;;;;;;23.78;68.10;99944.72;1686073;84;20138;-59
2023/06/24 06:42:14;;;;;;;;;;;;;;;23.86;67.61;99936.80;1685780;84;20095;-59
2023/06/24 06:44:40;;;;;;;;;;;;;;;23.97;67.27;99936.20;1684723;84;20102;-59
2023/06/24 06:47:07;;;;;;;;;;;;;;;24.07;67.28;99935.62;1688219;83;20168;-60
2023/06/24 06:49:32;;;;;;;;;;;;;;;24.21;66.85;99929.73;1685849;83;20159;-61
2023/06/24 06:51:59;;;;;;;;;;;;;;;24.61;67.08;99932.36;1701802;83;20140;-60
2023/06/24 06:54:24;;;;;;;;;;;;;;;25.05;66.19;99933.59;1693238;83;20510;-60
2023/06/24 06:56:52;;;;;;;;;;;;;;;25.44;64.96;99927.74;1704642;83;20505;-60
2023/06/24 06:59:18;;;;;;;;;;;;;;;25.98;65.95;99923.32;1704754;83;20209;-60
2023/06/24 07:01:44;;;;;;;;;;;;;;;26.65;64.98;99926.61;1704535;82;20137;-60
2023/06/24 07:04:10;;;;;;;;;;;;;;;26.95;63.62;99929.03;1706992;83;20211;-60
2023/06/24 07:06:36;;;;;;;;;;;;;;;27.23;63.17;99920.56;1693377;83;20462;-60
2023/06/24 07:09:02;;;;;;;;;;;;;;;27.76;63.47;99934.98;1706516;83;20179;-60
2023/06/24 07:11:28;;;;;;;;;;;;;;;28.50;62.45;99928.52;1706838;83;20211;-60
2023/06/24 07:13:54;;;;;;;;;;;;;;;29.04;61.84;99938.69;1706310;83;20173;-60
2023/06/24 07:16:20;;;;;;;;;;;;;;;29.41;60.66;99935.02;1708385;83;20181;-59
2023/06/24 07:18:46;;;;;;;;;;;;;;;29.85;60.24;99932.17;1708579;82;20391;-60
2023/06/24 07:21:12;;;;;;;;;;;;;;;30.60;60.08;99942.55;1705478;82;20119;-60
2023/06/24 07:23:38;;;;;;;;;;;;;;;31.71;59.09;99944.62;1708513;83;20480;-60
2023/06/24 07:26:04;;;;;;;;;;;;;;;32.50;56.83;99949.27;1705667;83;20366;-60
2023/06/24 07:28:30;;;;;;;;;;;;;;;33.23;56.30;99950.14;1708255;84;20480;-60
2023/06/24 07:30:56;;;;;;;;;;;;;;;33.78;55.77;99955.91;1704006;83;20182;-60
2023/06/24 07:33:22;;;;;;;;;;;;;;;34.69;54.80;99958.61;1711711;82;20188;-60
2023/06/24 07:35:48;;;;;;;;;;;;;;;35.55;53.93;99960.84;1710403;83;20146;-60
2023/06/24 07:38:14;;;;;;;;;;;;;;;36.38;52.36;99960.52;1708421;83;20490;-60
2023/06/24 07:40:40;;;;;;;;;;;;;;;36.69;50.47;99964.27;1694905;83;20158;-60
2023/06/24 07:43:06;;;;;;;;;;;;;;;36.80;49.86;99961.75;1703185;83;20095;-60
2023/06/24 07:45:31;;;;;;;;;;;;;;;37.18;49.15;99960.69;1690422;83;20154;-61
2023/06/24 07:47:57;;;;;;;;;;;;;;;37.80;47.56;99961.87;1733059;82;20575;-61
2023/06/24 07:50:23;;;;;;;;;;;;;;;37.97;46.59;99965.46;1713441;83;20128;-60
2023/06/24 07:52:50;;;;;;;;;;;;;;;38.43;46.41;99966.23;1686002;84;20210;-60
2023/06/24 07:55:16;;;;;;;;;;;;;;;38.99;42.61;99970.30;1706126;84;20168;-60
2023/06/24 07:57:45;;;;;;;;;;;;;;;39.48;43.21;99968.97;1708656;84;20117;-60
2023/06/24 08:00:12;;;;;;;;;;;;;;;39.74;42.17;99971.40;1706445;83;20189;-61
2023/06/24 08:02:39;;;;;;;;;;;;;;;40.24;42.17;99972.98;1686072;83;20198;-61
2023/06/24 08:05:05;;;;;;;;;;;;;;;40.81;40.60;99980.19;1685808;83;20183;-61
2023/06/24 08:07:32;;;;;;;;;;;;;;;41.33;40.54;99976.59;1709227;83;20205;-60
2023/06/24 08:09:58;;;;;;;;;;;;;;;42.10;39.22;99985.80;1686029;83;20214;-61
2023/06/24 08:12:24;;;;;;;;;;;;;;;42.83;37.92;99984.07;1707442;82;20188;-61
2023/06/24 08:14:50;;;;;;;;;;;;;;;42.86;36.26;99991.75;1709130;82;20156;-61
2023/06/24 08:17:16;;;;;;;;;;;;;;;42.87;35.16;99993.37;1705858;82;20527;-60
2023/06/24 08:19:42;;;;;;;;;;;;;;;42.88;35.26;99998.31;1711167;82;20356;-61
2023/06/24 08:22:10;;;;;;;;;;;;;;;43.02;34.23;99995.79;1719481;82;20117;-61
2023/06/24 08:24:36;;;;;;;;;;;;;;;42.67;32.89;100000.28;1717523;82;20137;-61
2023/06/24 08:27:03;;;;;;;;;;;;;;;42.71;31.84;99995.87;1707670;83;20431;-60
2023/06/24 08:29:29;;;;;;;;;;;;;;;42.51;31.53;100002.23;1691226;83;20166;-61
2023/06/24 08:31:55;;;;;;;;;;;;;;;42.24;30.90;100008.02;1686286;84;20116;-61
2023/06/24 08:34:23;;;;;;;;;;;;;;;41.73;30.53;100010.69;1683575;84;20187;-61
2023/06/24 08:36:48;;;;;;;;;;;;;;;41.69;30.25;100008.23;1730808;82;20141;-61
2023/06/24 08:39:14;;;;;;;;;;;;;;;40.96;29.53;100007.66;1713129;83;20624;-61
2023/06/24 08:41:40;;;;;;;;;;;;;;;40.72;29.44;100016.83;1686284;84;20171;-61
2023/06/24 08:44:06;;;;;;;;;;;;;;;41.03;29.30;100013.70;1709115;83;20185;-61
2023/06/24 08:46:35;;;;;;;;;;;;;;;41.01;28.86;100021.38;1707369;83;20110;-61
2023/06/24 08:49:05;;;;;;;;;;;;;;;41.59;28.74;100022.20;1690867;83;20203;-61
2023/06/24 08:51:33;;;;;;;;;;;;;;;42.36;28.02;100027.78;1683426;84;20206;-61
2023/06/24 08:54:00;;;;;;;;;;;;;;;42.91;27.92;100020.56;1744323;81;20166;-61
2023/06/24 08:56:27;;;;;;;;;;;;;;;43.42;27.43;100021.48;1744663;81;20087;-60
2023/06/24 08:58:52;;;;;;;;;;;;;;;44.36;27.27;100013.14;1743419;81;20363;-61
2023/06/24 09:01:19;;;;;;;;;;;;;;;45.08;26.42;100005.74;1744089;81;20174;-62
2023/06/24 09:03:45;;;;;;;;;;;;;;;45.23;25.64;100019.09;1741226;81;20140;-62
2023/06/24 09:06:10;;;;;;;;;;;;;;;45.54;25.29;100015.38;1742409;81;20218;-62
2023/06/24 09:08:39;;;;;;;;;;;;;;;45.47;25.22;100029.52;1743446;81;20111;-62
2023/06/24 09:11:08;;;;;;;;;;;;;;;45.82;24.43;100032.87;1740828;81;20163;-62
2023/06/24 09:13:35;;;;;;;;;;;;;;;46.28;24.39;100026.63;1742724;81;20131;-62
2023/06/24 09:16:14;;;;;;;;;;;;;;;46.80;23.98;100023.20;1745372;81;20110;-62
2023/06/24 09:18:40;;;;;;;;;;;;;;;46.92;23.65;100031.00;1745907;81;20196;-62
2023/06/24 09:21:07;;;;;;;;;;;;;;;46.56;23.20;100026.72;1709143;82;20164;-62
2023/06/24 09:23:41;;;;;;;;;;;;;;;46.66;22.34;100030.64;1714802;83;20558;-61
2023/06/24 09:26:11;;;;;;;;;;;;;;;46.67;22.28;100030.95;1744429;81;20143;-62
2023/06/24 09:28:37;;;;;;;;;;;;;;;46.88;22.24;100029.40;1744341;81;20099;-60
2023/06/24 09:31:05;;;;;;;;;;;;;;;47.94;21.62;100027.95;1742154;81;20115;-60
2023/06/24 09:33:31;;;;;;;;;;;;;;;48.23;21.18;100023.92;1747164;80;20177;-60
2023/06/24 09:35:57;;;;;;;;;;;;;;;48.03;20.66;100019.13;1747925;80;20381;-60
2023/06/24 09:38:37;;;;;;;;;;;;;;;47.80;20.79;100023.05;1740441;81;20174;-59
2023/06/24 09:41:04;;;;;;;;;;;;;;;48.03;20.38;100030.20;1743722;81;20142;-60
2023/06/24 09:43:31;;;;;;;;;;;;;;;48.67;20.07;100027.77;1741812;81;20166;-60
2023/06/24 09:45:58;;;;;;;;;;;;;;;49.02;19.74;100030.92;1744864;80;20095;-60
2023/06/24 09:48:28;;;;;;;;;;;;;;;49.38;19.21;100032.63;1741894;81;20115;-59
2023/06/24 09:50:55;;;;;;;;;;;;;;;49.29;18.95;100031.80;1744210;81;20110;-60
2023/06/24 09:53:22;;;;;;;;;;;;;;;49.34;18.19;100020.56;1749239;80;20106;-60
2023/06/24 09:55:48;;;;;;;;;;;;;;;49.28;18.90;100028.22;1749363;80;20464;-60
2023/06/24 09:58:16;;;;;;;;;;;;;;;49.58;18.63;100022.02;1749334;81;20150;-60
2023/06/24 10:00:44;;;;;;;;;;;;;;;49.59;17.63;100020.93;1749310;81;20155;-60
2023/06/24 10:03:11;;;;;;;;;;;;;;;49.41;18.07;100023.67;1747531;81;20140;-61
2023/06/24 10:05:37;;;;;;;;;;;;;;;49.57;17.43;100029.53;1750543;81;20446;-60
2023/06/24 10:08:05;;;;;;;;;;;;;;;49.81;17.44;100029.08;1747333;81;20147;-61
2023/06/24 10:10:31;;;;;;;;;;;;;;;49.60;17.26;100029.48;1745802;81;20221;-60
2023/06/24 10:12:57;;;;;;;;;;;;;;;49.25;17.01;100022.52;1747609;81;20173;-60
2023/06/24 10:15:24;;;;;;;;;;;;;;;49.25;17.42;100021.13;1745967;81;20157;-60
2023/06/24 10:17:51;;;;;;;;;;;;;;;49.13;17.24;100012.03;1748863;81;20174;-60
2023/06/24 10:20:32;;;;;;;;;;;;;;;49.26;16.75;100011.66;1746611;81;20261;-60
2023/06/24 10:22:58;;;;;;;;;;;;;;;48.92;16.87;100018.74;1747618;81;20205;-62
2023/06/24 10:25:23;;;;;;;;;;;;;;;48.68;16.91;100014.14;1747280;81;20189;-62
2023/06/24 10:27:56;;;;;;;;;;;;;;;48.47;16.81;100017.46;1748562;81;20412;-61
2023/06/24 10:30:23;;;;;;;;;;;;;;;47.99;16.60;100018.14;1746278;81;20518;-61
2023/06/24 10:32:55;;;;;;;;;;;;;;;46.32;16.57;100016.64;1747587;81;20201;-61
2023/06/24 10:35:24;;;;;;;;;;;;;;;45.03;17.00;100020.96;1748798;81;20150;-60
2023/06/24 10:37:59;;;;;;;;;;;;;;;44.32;17.37;100017.56;1713816;83;20490;-60
2023/06/24 10:40:35;;;;;;;;;;;;;;;44.16;17.44;100021.81;1706134;84;20172;-60
2023/06/24 10:43:03;;;;;;;;;;;;;;;44.64;17.92;100017.80;1718326;82;20148;-60
2023/06/24 10:45:30;;;;;;;;;;;;;;;45.99;17.61;100022.16;1726229;82;20208;-61
2023/06/24 10:47:56;;;;;;;;;;;;;;;45.95;17.39;100026.63;1710194;83;20137;-61
2023/06/24 10:50:23;;;;;;;;;;;;;;;45.47;17.41;100025.38;1708198;83;20160;-61
2023/06/24 10:52:55;;;;;;;;;;;;;;;44.08;17.21;100023.00;1697782;83;20175;-61
2023/06/24 10:55:19;;;;;;;;;;;;;;;42.44;17.52;100017.63;1705208;82;20609;-59
2023/06/24 10:57:45;;;;;;;;;;;;;;;40.18;17.92;100035.53;1688500;83;20200;-59
2023/06/24 11:00:12;;;;;;;;;;;;;;;38.31;18.43;100036.36;1678325;85;20162;-59
2023/06/24 11:02:39;;;;;;;;;;;;;;;36.90;19.11;100042.25;1707318;83;20204;-59
2023/06/24 11:05:06;;;;;;;;;;;;;;;35.81;19.51;100036.52;1691422;83;20186;-59
2023/06/24 11:07:34;;;;;;;;;;;;;;;35.35;20.08;100040.66;1690762;83;20195;-59
2023/06/24 11:10:09;;;;;;;;;;;;;;;35.89;20.71;100044.06;1719194;82;20096;-59
2023/06/24 11:12:36;;;;;;;;;;;;;;;36.57;20.76;100046.39;1730236;82;20161;-59
2023/06/24 11:15:03;;;;;;;;;;;;;;;36.90;20.67;100047.16;1707405;83;20176;-59
2023/06/24 11:17:30;;;;;;;;;;;;;;;36.30;20.75;100045.98;1705623;83;20187;-60
2023/06/24 11:19:57;;;;;;;;;;;;;;;35.30;21.13;100047.29;1701609;84;20478;-59
2023/06/24 11:22:26;;;;;;;;;;;;;;;34.39;21.75;100046.02;1696713;84;20497;-59
2023/06/24 11:24:53;;;;;;;;;;;;;;;33.70;22.17;100049.58;1696562;82;20151;-60
2023/06/24 11:27:25;;;;;;;;;;;;;;;33.16;22.72;100049.75;1737300;80;20172;-60
2023/06/24 11:29:53;;;;;;;;;;;;;;;32.54;23.09;100053.73;1750814;80;20173;-59
2023/06/24 11:32:19;;;;;;;;;;;;;;;31.77;23.44;100050.44;1751564;81;20197;-59
2023/06/24 11:34:46;;;;;;;;;;;;;;;31.20;24.00;100048.89;1748323;81;20099;-59
2023/06/24 11:37:13;;;;;;;;;;;;;;;30.97;24.62;100052.70;1716906;83;20176;-59
2023/06/24 11:39:39;;;;;;;;;;;;;;;31.10;24.99;100051.96;1682569;83;20190;-60
2023/06/24 11:42:09;;;;;;;;;;;;;;;31.42;25.47;100052.36;1716559;83;20180;-58
2023/06/24 11:44:36;;;;;;;;;;;;;;;31.44;25.59;100051.13;1683354;83;20704;-59
2023/06/24 11:47:07;;;;;;;;;;;;;;;31.87;26.02;100056.30;1680064;82;20192;-59
2023/06/24 11:49:50;;;;;;;;;;;;;;;32.47;26.55;100054.27;1712856;82;20193;-59
2023/06/24 11:52:18;;;;;;;;;;;;;;;33.27;26.16;100060.41;1735574;81;20195;-60
2023/06/24 11:54:44;;;;;;;;;;;;;;;33.96;25.83;100054.84;1741226;81;20172;-59
2023/06/24 11:57:12;;;;;;;;;;;;;;;34.13;25.45;100059.77;1711704;82;20188;-60
2023/06/24 11:59:45;;;;;;;;;;;;;;;33.44;25.44;100056.71;1734778;82;20171;-60
2023/06/24 12:02:12;;;;;;;;;;;;;;;32.74;25.92;100051.87;1738266;81;20401;-60
2023/06/24 12:04:41;;;;;;;;;;;;;;;32.23;26.13;100055.13;1717179;82;20437;-60
2023/06/24 12:07:07;;;;;;;;;;;;;;;31.70;26.52;100052.27;1754031;81;20149;-60
2023/06/24 12:09:33;;;;;;;;;;;;;;;31.22;26.73;100052.23;1712939;82;20507;-60
2023/06/24 12:12:06;;;;;;;;;;;;;;;31.06;27.07;100045.31;1697912;83;20171;-60
2023/06/24 12:14:30;;;;;;;;;;;;;;;30.91;27.37;100057.53;1681828;84;20200;-60
2023/06/24 12:16:58;;;;;;;;;;;;;;;30.75;27.45;100056.45;1714585;82;20458;-60
2023/06/24 12:19:26;;;;;;;;;;;;;;;30.60;27.68;100061.94;1713056;83;20189;-59
2023/06/24 12:21:53;;;;;;;;;;;;;;;30.25;27.98;100064.53;1687862;83;20152;-59
2023/06/24 12:24:19;;;;;;;;;;;;;;;29.88;28.87;100063.71;1711011;82;20153;-60
2023/06/24 12:26:46;;;;;;;;;;;;;;;29.86;28.67;100064.92;1709196;82;20218;-59
2023/06/24 12:29:12;;;;;;;;;;;;;;;29.81;28.81;100061.95;1711668;82;20483;-59
2023/06/24 12:31:38;;;;;;;;;;;;;;;29.64;28.95;100062.17;1692119;83;20234;-59
2023/06/24 12:34:10;;;;;;;;;;;;;;;29.42;29.07;100060.41;1688309;83;20552;-62
2023/06/24 12:36:33;;;;;;;;;;;;;;;29.05;28.95;100064.03;1721922;82;20464;-59
2023/06/24 12:38:59;;;;;;;;;;;;;;;28.57;29.46;100056.22;1695647;83;20199;-59
2023/06/24 12:41:27;;;;;;;;;;;;;;;28.09;30.16;100060.89;1704376;82;20203;-61
2023/06/24 12:43:53;;;;;;;;;;;;;;;27.61;30.25;100061.47;1701981;83;20143;-59